Time;durP1;ratioP1;P1;durP2;ratioP2;P2;SDS_P1;SDS_P2;PMS_P1;PMS_P2;Temp;Humidity;BMP_temperature;BMP_pressure;BME280_temperature;BME280_humidity;BME280_pressure;Samples;Min_cycle;Max_cycle;Signal;HPM_P1;HPM_P2
2023/03/20 00:01:49;;;;;;;9.40;4.93;;;8.40;99.90;;;;;;5095524;28;20305;-80
2023/03/20 00:04:15;;;;;;;10.87;5.10;;;8.40;99.90;;;;;;5095128;28;20289;-81
2023/03/20 00:06:40;;;;;;;9.50;4.47;;;8.30;99.90;;;;;;5095179;28;20127;-80
2023/03/20 00:09:07;;;;;;;13.07;4.67;;;8.40;99.90;;;;;;5094099;28;20437;-79
2023/03/20 00:11:35;;;;;;;11.83;4.90;;;8.30;99.90;;;;;;5094704;28;20056;-79
2023/03/20 00:14:06;;;;;;;9.87;5.00;;;8.40;99.90;;;;;;5095734;28;20278;-79
2023/03/20 00:16:35;;;;;;;11.80;5.00;;;8.40;99.90;;;;;;5094700;28;20754;-80
2023/03/20 00:19:02;;;;;;;11.77;4.87;;;8.40;99.90;;;;;;5095082;28;20285;-79
2023/03/20 00:21:28;;;;;;;10.70;4.97;;;8.40;99.90;;;;;;5095031;28;20285;-80
2023/03/20 00:23:55;;;;;;;11.20;5.13;;;8.40;99.90;;;;;;5095261;28;20642;-80
2023/03/20 00:26:25;;;;;;;9.33;4.40;;;8.40;99.90;;;;;;5094953;28;20373;-79
2023/03/20 00:28:51;;;;;;;10.30;4.67;;;8.40;99.90;;;;;;5094999;28;20302;-80
2023/03/20 00:31:28;;;;;;;11.03;5.63;;;8.40;99.90;;;;;;5094037;28;20314;-82
2023/03/20 00:33:56;;;;;;;13.50;5.40;;;8.40;99.90;;;;;;5095430;28;20332;-80
2023/03/20 00:36:22;;;;;;;11.53;5.73;;;8.40;99.90;;;;;;5095309;28;20282;-80
2023/03/20 00:38:52;;;;;;;12.27;5.70;;;8.40;99.90;;;;;;5095019;28;20324;-80
2023/03/20 00:41:20;;;;;;;13.67;6.33;;;8.40;99.90;;;;;;5093506;28;20276;-82
2023/03/20 00:43:49;;;;;;;15.77;6.43;;;8.40;99.90;;;;;;5095439;28;20286;-80
2023/03/20 00:46:15;;;;;;;13.90;6.07;;;8.40;99.90;;;;;;5094257;28;20365;-79
2023/03/20 00:48:42;;;;;;;11.77;5.57;;;8.40;99.90;;;;;;5094424;28;20385;-80
2023/03/20 00:51:09;;;;;;;16.37;7.23;;;8.40;99.90;;;;;;5093667;28;20048;-80
2023/03/20 00:53:35;;;;;;;13.13;6.27;;;8.40;99.90;;;;;;5076225;28;20300;-80
2023/03/20 00:56:01;;;;;;;12.00;6.20;;;8.40;99.90;;;;;;5094808;28;20361;-80
2023/03/20 00:58:27;;;;;;;15.63;5.57;;;8.40;99.90;;;;;;5094402;28;20044;-80
2023/03/20 01:00:53;;;;;;;17.47;5.77;;;8.40;99.90;;;;;;5095132;28;20698;-80
2023/03/20 01:03:21;;;;;;;19.40;6.53;;;8.40;99.90;;;;;;5094211;28;20044;-80
2023/03/20 01:05:51;;;;;;;16.37;6.10;;;8.40;99.90;;;;;;5094164;28;20060;-80
2023/03/20 01:08:16;;;;;;;14.17;6.20;;;8.40;99.90;;;;;;5094746;28;20384;-80
2023/03/20 01:10:44;;;;;;;16.60;6.03;;;8.40;99.90;;;;;;5094141;28;20424;-81
2023/03/20 01:13:26;;;;;;;16.20;6.27;;;8.30;99.90;;;;;;5094648;28;20064;-81
2023/03/20 01:15:53;;;;;;;18.17;6.20;;;8.40;99.90;;;;;;5093417;28;20298;-81
2023/03/20 01:18:21;;;;;;;14.17;5.83;;;8.40;99.90;;;;;;5093926;28;20274;-80
2023/03/20 01:20:51;;;;;;;14.30;6.27;;;8.40;99.90;;;;;;5094738;28;20663;-80
2023/03/20 01:23:18;;;;;;;16.47;5.93;;;8.40;99.90;;;;;;5093975;28;20278;-80
2023/03/20 01:25:44;;;;;;;14.47;5.87;;;8.40;99.90;;;;;;5092865;28;20766;-80
2023/03/20 01:28:22;;;;;;;15.03;6.60;;;8.40;99.90;;;;;;5093765;28;20298;-80
2023/03/20 01:30:48;;;;;;;12.37;6.40;;;8.40;99.90;;;;;;5094422;28;20351;-80
2023/03/20 01:33:19;;;;;;;12.10;6.00;;;8.40;99.90;;;;;;5093741;28;20318;-80
2023/03/20 01:35:46;;;;;;;18.03;6.17;;;8.40;99.90;;;;;;5093756;28;20309;-80
2023/03/20 01:38:24;;;;;;;14.50;6.50;;;8.40;99.90;;;;;;5094140;28;20274;-80
2023/03/20 01:40:56;;;;;;;18.93;5.80;;;8.40;99.90;;;;;;5094562;28;20306;-80
2023/03/20 01:43:24;;;;;;;17.67;6.03;;;8.40;99.90;;;;;;5076109;28;20280;-80
2023/03/20 01:46:01;;;;;;;14.63;6.30;;;8.40;99.90;;;;;;5093501;28;20365;-80
2023/03/20 01:48:57;;;;;;;16.10;6.47;;;8.40;99.90;;;;;;5094002;28;20305;-82
2023/03/20 01:51:35;;;;;;;18.23;6.97;;;8.40;99.90;;;;;;5093537;28;20282;-80
2023/03/20 01:54:08;;;;;;;21.60;6.00;;;8.40;99.90;;;;;;5093706;28;20302;-80
2023/03/20 01:56:39;;;;;;;17.87;6.93;;;8.40;99.90;;;;;;5093594;28;20282;-80
2023/03/20 01:59:26;;;;;;;12.03;5.83;;;8.40;99.90;;;;;;5092895;28;20347;-80
2023/03/20 02:01:52;;;;;;;16.03;6.60;;;8.40;99.90;;;;;;5094017;28;20746;-80
2023/03/20 02:04:22;;;;;;;16.50;6.63;;;8.40;99.90;;;;;;5075641;28;20293;-80
2023/03/20 02:06:48;;;;;;;15.80;7.13;;;8.30;99.90;;;;;;5092744;28;20052;-81
2023/03/20 02:09:15;;;;;;;14.57;6.87;;;8.30;99.90;;;;;;5093302;28;20305;-80
2023/03/20 02:11:43;;;;;;;17.03;8.03;;;8.30;99.90;;;;;;5093286;28;20343;-80
2023/03/20 02:14:11;;;;;;;15.37;7.13;;;8.30;99.90;;;;;;5093701;28;20708;-80
2023/03/20 02:16:40;;;;;;;14.83;6.97;;;8.30;99.90;;;;;;5093627;28;20330;-81
2023/03/20 02:19:14;;;;;;;16.43;6.97;;;8.40;99.90;;;;;;5093365;28;20290;-80
2023/03/20 02:22:01;;;;;;;16.05;7.10;;;8.40;99.90;;;;;;5093307;28;20730;-81
2023/03/20 02:25:02;;;;;;;15.53;7.97;;;8.40;99.90;;;;;;5093088;28;20484;-80
2023/03/20 02:27:41;;;;;;;13.33;7.03;;;8.30;99.90;;;;;;5093282;28;20373;-80
2023/03/20 02:30:30;;;;;;;14.27;8.00;;;8.30;99.90;;;;;;5093089;28;20369;-80
2023/03/20 02:33:14;;;;;;;16.33;8.03;;;8.30;99.90;;;;;;5080430;28;20293;-80
2023/03/20 02:36:01;;;;;;;16.57;8.63;;;8.30;99.90;;;;;;5093133;28;20314;-80
2023/03/20 02:38:39;;;;;;;16.00;9.10;;;8.30;99.90;;;;;;5093242;28;20279;-79
2023/03/20 02:41:38;;;;;;;15.47;8.40;;;8.30;99.90;;;;;;5093178;28;20282;-80
2023/03/20 02:44:21;;;;;;;19.67;9.50;;;8.30;99.90;;;;;;5078049;28;20350;-79
2023/03/20 02:47:01;;;;;;;19.37;9.47;;;8.30;99.90;;;;;;5093124;28;20294;-80
2023/03/20 02:49:57;;;;;;;16.33;10.40;;;8.40;99.90;;;;;;5093632;28;20338;-79
2023/03/20 02:52:52;;;;;;;14.50;9.30;;;8.30;99.90;;;;;;5092751;28;20611;-80
2023/03/20 02:55:30;;;;;;;17.70;9.63;;;8.30;99.90;;;;;;5095161;28;20282;-79
2023/03/20 02:58:18;;;;;;;20.97;9.57;;;8.30;99.90;;;;;;5097461;28;20282;-79
2023/03/20 03:00:46;;;;;;;16.77;9.43;;;8.30;99.90;;;;;;5096945;28;20282;-79
2023/03/20 03:03:40;;;;;;;20.10;9.73;;;8.30;99.90;;;;;;5096611;28;20650;-79
2023/03/20 03:06:26;;;;;;;19.27;9.60;;;8.30;99.90;;;;;;5097392;28;20642;-79
2023/03/20 03:08:59;;;;;;;16.20;9.10;;;8.40;99.90;;;;;;5095866;28;20313;-80
2023/03/20 03:11:25;;;;;;;16.80;9.03;;;8.30;99.90;;;;;;5096741;28;20683;-80
2023/03/20 03:13:55;;;;;;;13.10;8.73;;;8.40;99.90;;;;;;5096339;28;20282;-80
2023/03/20 03:16:28;;;;;;;18.30;8.57;;;8.40;99.90;;;;;;5096655;28;20274;-80
2023/03/20 03:19:17;;;;;;;15.10;7.80;;;8.40;99.90;;;;;;5097157;28;20610;-79
2023/03/20 03:21:49;;;;;;;15.57;7.47;;;8.40;99.90;;;;;;5095507;28;20851;-80
2023/03/20 03:24:33;;;;;;;16.00;7.00;;;8.40;99.90;;;;;;5096852;28;20710;-79
2023/03/20 03:27:02;;;;;;;13.70;6.23;;;8.40;99.90;;;;;;5096941;28;20294;-79
2023/03/20 03:29:32;;;;;;;14.50;6.30;;;8.40;99.90;;;;;;5096109;28;20436;-79
2023/03/20 03:32:01;;;;;;;11.37;5.67;;;8.40;99.90;;;;;;5096616;28;20411;-80
2023/03/20 03:34:27;;;;;;;11.57;6.10;;;8.40;99.90;;;;;;5096756;28;20293;-80
2023/03/20 03:37:08;;;;;;;16.17;6.13;;;8.40;99.90;;;;;;5096691;28;20625;-80
2023/03/20 03:39:47;;;;;;;13.57;6.40;;;8.40;99.90;;;;;;5077597;28;20631;-80
2023/03/20 03:42:43;;;;;;;12.43;6.27;;;8.40;99.90;;;;;;5096401;28;20282;-80
2023/03/20 03:45:16;;;;;;;13.93;7.13;;;8.40;99.90;;;;;;5095828;28;20286;-80
2023/03/20 03:48:03;;;;;;;14.27;7.03;;;8.40;99.90;;;;;;5095108;28;20063;-81
2023/03/20 03:50:35;;;;;;;13.97;7.70;;;8.30;99.90;;;;;;5095680;28;20331;-80
2023/03/20 03:53:06;;;;;;;17.47;9.03;;;8.30;99.90;;;;;;5095958;28;20349;-80
2023/03/20 03:55:39;;;;;;;19.40;9.73;;;8.30;99.90;;;;;;5094651;28;20788;-80
2023/03/20 03:58:12;;;;;;;22.27;9.30;;;8.30;99.90;;;;;;5095545;28;20270;-79
2023/03/20 04:00:41;;;;;;;20.77;10.37;;;8.30;99.90;;;;;;5095529;28;20281;-80
2023/03/20 04:03:11;;;;;;;15.03;9.60;;;8.30;99.90;;;;;;5095662;28;20290;-80
2023/03/20 04:05:41;;;;;;;16.43;10.13;;;8.30;99.90;;;;;;5095311;28;20284;-80
2023/03/20 04:08:07;;;;;;;15.23;10.07;;;8.30;99.90;;;;;;5094959;28;20383;-80
2023/03/20 04:10:33;;;;;;;17.93;9.90;;;8.30;99.90;;;;;;5094379;28;20362;-79
2023/03/20 04:12:59;;;;;;;15.20;8.67;;;8.30;99.90;;;;;;5094168;28;20052;-80
2023/03/20 04:15:26;;;;;;;17.03;8.83;;;8.30;99.90;;;;;;5095720;28;20121;-80
2023/03/20 04:17:52;;;;;;;16.43;9.13;;;8.30;99.90;;;;;;5095238;28;20101;-79
2023/03/20 04:20:19;;;;;;;16.80;8.83;;;8.30;99.90;;;;;;5095110;28;20270;-80
2023/03/20 04:22:45;;;;;;;14.67;7.83;;;8.20;99.90;;;;;;5095064;28;20297;-80
2023/03/20 04:25:21;;;;;;;15.67;8.80;;;8.20;99.90;;;;;;5093797;28;20754;-80
2023/03/20 04:27:46;;;;;;;19.17;8.37;;;8.20;99.90;;;;;;5094888;28;20290;-80
2023/03/20 04:30:12;;;;;;;18.80;9.10;;;8.20;99.90;;;;;;5094944;28;20293;-80
2023/03/20 04:32:38;;;;;;;15.33;8.93;;;8.20;99.90;;;;;;5095427;28;20051;-78
2023/03/20 04:35:05;;;;;;;16.60;9.10;;;8.20;99.90;;;;;;5093806;28;20290;-79
2023/03/20 04:37:30;;;;;;;16.40;8.83;;;8.20;99.90;;;;;;5094725;28;20079;-79
2023/03/20 04:39:56;;;;;;;19.30;9.47;;;8.20;99.90;;;;;;5093684;28;20334;-79
2023/03/20 04:42:22;;;;;;;15.67;9.30;;;8.20;99.90;;;;;;5093703;28;20055;-79
2023/03/20 04:44:47;;;;;;;20.40;10.53;;;8.20;99.90;;;;;;5095238;28;20044;-81
2023/03/20 04:47:13;;;;;;;16.57;9.67;;;8.20;99.90;;;;;;5076684;28;20476;-80
2023/03/20 04:49:39;;;;;;;18.27;9.67;;;8.20;99.90;;;;;;5094438;28;20040;-79
2023/03/20 04:52:05;;;;;;;20.73;9.90;;;8.20;99.90;;;;;;5094683;28;20044;-79
2023/03/20 04:54:34;;;;;;;21.03;10.07;;;8.20;99.90;;;;;;5093528;28;20550;-79
2023/03/20 04:56:59;;;;;;;20.87;11.40;;;8.20;99.90;;;;;;5094376;28;20473;-80
2023/03/20 04:59:25;;;;;;;17.40;10.83;;;8.20;99.90;;;;;;5094076;28;20343;-80
2023/03/20 05:01:51;;;;;;;21.30;10.50;;;8.20;99.90;;;;;;5093057;28;20044;-80
2023/03/20 05:04:16;;;;;;;22.43;11.00;;;8.20;99.90;;;;;;5094292;28;20048;-79
2023/03/20 05:06:42;;;;;;;18.77;10.97;;;8.10;99.90;;;;;;5094550;28;20055;-79
2023/03/20 05:09:09;;;;;;;17.63;11.50;;;8.10;99.90;;;;;;5094134;28;20473;-79
2023/03/20 05:11:35;;;;;;;17.63;10.70;;;8.10;99.90;;;;;;5094560;28;20126;-78
2023/03/20 05:14:01;;;;;;;24.70;11.97;;;8.10;99.90;;;;;;5093425;28;20297;-80
2023/03/20 05:16:27;;;;;;;19.80;11.63;;;8.10;99.90;;;;;;5094644;28;20734;-79
2023/03/20 05:18:53;;;;;;;20.30;13.00;;;8.10;99.90;;;;;;5092729;28;20135;-80
2023/03/20 05:21:18;;;;;;;20.10;11.77;;;8.10;99.90;;;;;;5093625;28;20048;-79
2023/03/20 05:23:44;;;;;;;20.73;11.97;;;8.10;99.90;;;;;;5092788;28;20548;-80
2023/03/20 05:26:10;;;;;;;17.87;11.63;;;8.10;99.90;;;;;;5094159;28;20044;-80
2023/03/20 05:28:36;;;;;;;19.50;12.67;;;8.10;99.90;;;;;;5093840;28;20055;-80
2023/03/20 05:31:01;;;;;;;22.33;12.10;;;8.10;99.90;;;;;;5094137;28;20086;-80
2023/03/20 05:33:27;;;;;;;18.60;11.83;;;8.10;99.90;;;;;;5093471;28;20336;-79
2023/03/20 05:35:53;;;;;;;20.77;11.97;;;8.10;99.90;;;;;;5093552;28;20089;-80
2023/03/20 05:38:21;;;;;;;20.23;12.57;;;8.10;99.90;;;;;;5093973;28;20376;-80
2023/03/20 05:40:51;;;;;;;20.97;12.00;;;8.10;99.90;;;;;;5092754;28;20185;-80
2023/03/20 05:43:16;;;;;;;21.13;12.20;;;8.10;99.90;;;;;;5092732;28;20290;-79
2023/03/20 05:45:42;;;;;;;22.53;12.07;;;8.10;99.90;;;;;;5093726;28;20780;-80
2023/03/20 05:48:08;;;;;;;22.53;11.87;;;8.10;99.90;;;;;;5093387;28;20048;-80
2023/03/20 05:50:34;;;;;;;19.63;12.13;;;8.10;99.90;;;;;;5093578;28;20506;-80
2023/03/20 05:53:00;;;;;;;22.60;13.27;;;8.10;99.90;;;;;;5092437;28;20044;-80
2023/03/20 05:55:26;;;;;;;20.40;11.83;;;8.10;99.90;;;;;;5093409;28;20368;-80
2023/03/20 05:57:52;;;;;;;21.90;12.53;;;8.10;99.90;;;;;;5094089;28;20746;-79
2023/03/20 06:00:18;;;;;;;16.40;11.03;;;8.10;99.90;;;;;;5093593;28;20542;-79
2023/03/20 06:02:43;;;;;;;18.23;12.17;;;8.10;99.90;;;;;;5093575;28;20457;-80
2023/03/20 06:05:09;;;;;;;19.80;11.53;;;8.10;99.90;;;;;;5042594;28;20334;-81
2023/03/20 06:07:38;;;;;;;20.80;11.30;;;8.10;99.90;;;;;;5093556;28;20079;-80
2023/03/20 06:10:04;;;;;;;23.50;11.33;;;8.10;99.90;;;;;;5092679;28;20123;-80
2023/03/20 06:12:30;;;;;;;20.63;11.37;;;8.10;99.90;;;;;;5093692;28;20305;-78
2023/03/20 06:14:56;;;;;;;23.13;12.10;;;8.10;99.90;;;;;;5093323;28;20618;-79
2023/03/20 06:17:21;;;;;;;17.67;11.43;;;8.10;99.90;;;;;;5093340;28;20128;-79
2023/03/20 06:19:47;;;;;;;19.47;10.80;;;8.10;99.90;;;;;;5093345;28;20040;-79
2023/03/20 06:22:13;;;;;;;22.97;11.30;;;8.10;99.90;;;;;;5092346;28;20063;-80
2023/03/20 06:24:38;;;;;;;19.57;11.03;;;8.10;99.90;;;;;;5093128;28;20052;-77
2023/03/20 06:27:04;;;;;;;16.03;10.83;;;8.20;99.90;;;;;;5093700;28;20067;-78
2023/03/20 06:29:30;;;;;;;18.13;11.80;;;8.20;99.90;;;;;;5092154;28;20119;-77
2023/03/20 06:31:56;;;;;;;19.37;11.10;;;8.20;99.90;;;;;;5097210;28;20048;-77
2023/03/20 06:34:25;;;;;;;19.40;10.37;;;8.20;99.90;;;;;;5096510;28;20127;-78
2023/03/20 06:36:51;;;;;;;19.23;11.33;;;8.20;99.90;;;;;;5096671;28;20819;-78
2023/03/20 06:39:20;;;;;;;16.00;10.13;;;8.20;99.90;;;;;;5097555;28;20278;-81
2023/03/20 06:41:46;;;;;;;19.37;11.37;;;8.30;99.90;;;;;;5097661;28;20123;-80
2023/03/20 06:44:11;;;;;;;17.53;10.30;;;8.30;99.90;;;;;;5079087;28;20329;-81
2023/03/20 06:46:37;;;;;;;19.67;10.70;;;8.30;99.90;;;;;;5097503;28;20052;-80
2023/03/20 06:49:03;;;;;;;19.17;10.67;;;8.30;99.90;;;;;;5096844;28;20071;-81
2023/03/20 06:51:28;;;;;;;21.37;10.70;;;8.30;99.90;;;;;;5095795;28;20418;-80
2023/03/20 06:54:00;;;;;;;15.40;9.90;;;8.30;99.90;;;;;;5095953;28;20048;-83
2023/03/20 06:56:26;;;;;;;22.17;11.03;;;8.30;99.90;;;;;;5097396;28;20109;-79
2023/03/20 06:58:51;;;;;;;17.30;10.90;;;8.40;99.90;;;;;;5078575;28;20278;-78
2023/03/20 07:01:19;;;;;;;18.70;10.37;;;8.40;99.90;;;;;;5097073;28;20421;-79
2023/03/20 07:03:45;;;;;;;22.63;10.47;;;8.40;99.90;;;;;;5096502;28;20048;-79
2023/03/20 07:06:12;;;;;;;20.37;10.90;;;8.40;99.90;;;;;;5095418;28;20354;-80
2023/03/20 07:08:46;;;;;;;20.60;11.60;;;8.40;99.90;;;;;;5096443;28;20762;-79
2023/03/20 07:11:13;;;;;;;19.15;10.93;;;8.50;99.90;;;;;;5096400;28;20314;-78
2023/03/20 07:13:42;;;;;;;18.17;11.60;;;8.50;99.90;;;;;;5094968;28;20060;-79
2023/03/20 07:16:11;;;;;;;18.13;10.13;;;8.50;99.90;;;;;;5096354;28;20294;-81
2023/03/20 07:18:36;;;;;;;20.77;11.17;;;8.60;99.90;;;;;;5095372;28;20293;-79
2023/03/20 07:21:05;;;;;;;18.17;11.33;;;8.70;99.90;;;;;;5095265;28;20359;-79
2023/03/20 07:23:33;;;;;;;21.73;12.47;;;8.70;99.90;;;;;;5096217;28;20055;-78
2023/03/20 07:25:59;;;;;;;23.60;11.80;;;8.80;99.90;;;;;;5095846;28;20278;-79
2023/03/20 07:28:25;;;;;;;19.20;12.93;;;8.80;99.90;;;;;;5096117;28;20290;-80
2023/03/20 07:30:50;;;;;;;19.77;12.13;;;8.90;99.90;;;;;;5094952;28;20298;-79
2023/03/20 07:33:16;;;;;;;19.53;11.87;;;8.90;99.90;;;;;;5095119;28;20097;-79
2023/03/20 07:35:42;;;;;;;19.80;11.87;;;9.00;99.90;;;;;;5096028;28;20097;-79
2023/03/20 07:38:08;;;;;;;22.13;12.40;;;9.00;99.90;;;;;;5096489;28;20058;-79
2023/03/20 07:40:34;;;;;;;21.60;12.53;;;9.00;99.90;;;;;;5094539;28;20048;-79
2023/03/20 07:43:00;;;;;;;21.43;12.67;;;9.00;99.90;;;;;;5096506;28;20468;-79
2023/03/20 07:45:25;;;;;;;24.20;13.73;;;9.10;99.90;;;;;;5094897;28;20051;-80
2023/03/20 07:47:51;;;;;;;23.83;11.70;;;9.10;99.90;;;;;;5096360;28;20286;-80
2023/03/20 07:50:17;;;;;;;20.77;11.30;;;9.10;99.90;;;;;;5077914;28;20406;-80
2023/03/20 07:52:47;;;;;;;17.37;11.33;;;9.10;99.90;;;;;;5095800;28;20094;-80
2023/03/20 07:55:14;;;;;;;18.97;11.73;;;9.10;99.90;;;;;;5096267;28;20052;-80
2023/03/20 07:57:40;;;;;;;20.03;12.73;;;9.10;99.90;;;;;;5078076;28;20286;-80
2023/03/20 08:00:07;;;;;;;21.37;12.67;;;9.10;99.90;;;;;;5095615;28;20606;-80
2023/03/20 08:02:33;;;;;;;18.30;10.93;;;9.10;99.90;;;;;;5095557;28;20377;-80
2023/03/20 08:04:59;;;;;;;21.73;12.03;;;9.10;99.90;;;;;;5095182;28;20741;-80
2023/03/20 08:07:25;;;;;;;23.50;12.07;;;9.10;99.90;;;;;;5095472;28;20285;-80
2023/03/20 08:09:51;;;;;;;16.97;11.10;;;9.10;99.90;;;;;;5077350;28;20523;-80
2023/03/20 08:12:17;;;;;;;19.87;12.50;;;9.20;99.90;;;;;;5094134;28;20326;-81
2023/03/20 08:14:43;;;;;;;21.23;12.90;;;9.20;99.90;;;;;;5095856;28;20048;-80
2023/03/20 08:17:09;;;;;;;21.67;12.73;;;9.20;99.90;;;;;;5095297;28;20343;-80
2023/03/20 08:19:35;;;;;;;17.10;11.70;;;9.30;99.90;;;;;;5095166;28;20479;-80
2023/03/20 08:22:01;;;;;;;21.97;12.33;;;9.30;99.90;;;;;;5094464;28;20460;-80
2023/03/20 08:24:26;;;;;;;19.87;11.40;;;9.30;99.90;;;;;;5094855;28;20131;-80
2023/03/20 08:26:52;;;;;;;20.30;11.43;;;9.30;99.90;;;;;;5095035;28;20572;-80
2023/03/20 08:29:18;;;;;;;20.03;11.67;;;9.30;99.90;;;;;;5094822;28;20089;-80
2023/03/20 08:31:44;;;;;;;16.03;10.40;;;9.40;99.90;;;;;;5095216;28;20131;-80
2023/03/20 08:34:10;;;;;;;22.17;10.53;;;9.40;99.90;;;;;;5094562;28;20544;-80
2023/03/20 08:36:38;;;;;;;19.80;10.70;;;9.50;99.90;;;;;;5093836;28;20283;-80
2023/03/20 08:39:05;;;;;;;16.53;9.93;;;9.50;99.90;;;;;;5094911;28;20039;-80
2023/03/20 08:41:32;;;;;;;19.43;10.90;;;9.50;99.90;;;;;;5094797;28;20754;-80
2023/03/20 08:43:58;;;;;;;19.33;11.17;;;9.50;99.90;;;;;;5093857;28;20793;-79
2023/03/20 08:46:24;;;;;;;21.50;10.80;;;9.50;99.90;;;;;;5094783;28;20281;-80
2023/03/20 08:48:50;;;;;;;20.90;10.73;;;9.60;99.90;;;;;;5094665;28;20298;-79
2023/03/20 08:51:16;;;;;;;22.43;11.13;;;9.60;99.90;;;;;;5094790;28;20332;-79
2023/03/20 08:53:41;;;;;;;19.83;10.17;;;9.70;99.90;;;;;;5093671;28;20286;-79
2023/03/20 08:56:08;;;;;;;21.07;10.57;;;9.70;99.90;;;;;;5094685;28;20047;-79
2023/03/20 08:58:34;;;;;;;16.77;10.73;;;9.80;99.90;;;;;;5093354;28;20109;-79
2023/03/20 09:01:05;;;;;;;15.23;9.53;;;9.80;99.90;;;;;;5094516;28;20332;-79
2023/03/20 09:03:31;;;;;;;18.00;9.57;;;9.80;99.90;;;;;;5076214;28;20294;-79
2023/03/20 09:05:56;;;;;;;18.13;10.67;;;9.90;99.90;;;;;;5094289;28;20312;-79
2023/03/20 09:08:22;;;;;;;18.33;10.23;;;9.90;99.90;;;;;;5093300;28;20098;-79
2023/03/20 09:10:48;;;;;;;17.90;10.03;;;9.90;99.90;;;;;;5093047;28;20134;-79
2023/03/20 09:13:14;;;;;;;16.63;8.97;;;10.00;99.90;;;;;;5093510;28;20128;-80
2023/03/20 09:15:40;;;;;;;20.80;9.00;;;10.00;99.90;;;;;;5094200;28;20059;-79
2023/03/20 09:18:06;;;;;;;19.37;9.43;;;10.00;99.90;;;;;;5094230;28;20054;-79
2023/03/20 09:20:32;;;;;;;20.53;9.13;;;10.00;99.90;;;;;;5092850;28;20282;-80
2023/03/20 09:22:59;;;;;;;16.63;9.90;;;10.00;99.90;;;;;;5094640;28;20622;-78
2023/03/20 09:25:25;;;;;;;20.13;9.70;;;10.10;99.90;;;;;;5092923;28;20293;-80
2023/03/20 09:27:54;;;;;;;18.23;9.73;;;10.10;99.90;;;;;;5094347;28;20278;-79
2023/03/20 09:30:22;;;;;;;19.97;9.57;;;10.10;99.90;;;;;;5094542;28;20310;-79
2023/03/20 09:32:48;;;;;;;21.00;9.77;;;10.20;99.90;;;;;;5094017;28;20286;-79
2023/03/20 09:35:14;;;;;;;24.17;10.37;;;10.30;99.90;;;;;;5093864;28;20325;-79
2023/03/20 09:37:40;;;;;;;22.73;9.93;;;10.30;99.90;;;;;;5092686;28;20317;-79
2023/03/20 09:40:06;;;;;;;15.90;9.40;;;10.40;99.90;;;;;;5092578;28;20040;-79
2023/03/20 09:42:53;;;;;;;22.53;9.53;;;10.40;99.90;;;;;;5093337;28;20055;-80
2023/03/20 09:45:40;;;;;;;17.67;9.33;;;10.50;99.90;;;;;;5093157;28;20297;-79
2023/03/20 09:48:44;;;;;;;17.87;9.40;;;10.50;99.90;;;;;;5093679;28;20328;-79
2023/03/20 09:51:25;;;;;;;18.90;9.90;;;10.50;99.90;;;;;;5087459;28;20282;-79
2023/03/20 09:53:58;;;;;;;20.40;9.53;;;10.40;99.90;;;;;;5093661;28;20286;-79
2023/03/20 09:56:26;;;;;;;17.70;9.17;;;10.40;99.90;;;;;;5092419;28;20318;-79
2023/03/20 09:58:57;;;;;;;21.30;10.03;;;10.40;99.90;;;;;;5094456;28;20320;-79
2023/03/20 10:01:32;;;;;;;17.57;9.83;;;10.40;99.90;;;;;;5093920;28;20332;-79
2023/03/20 10:04:02;;;;;;;24.73;9.82;;;10.30;99.90;;;;;;5092482;28;20286;-79
2023/03/20 10:06:28;;;;;;;21.03;8.73;;;10.30;99.90;;;;;;5097038;28;20052;-79
2023/03/20 10:08:54;;;;;;;21.43;9.97;;;10.30;99.90;;;;;;5097659;28;20320;-79
2023/03/20 10:11:39;;;;;;;22.10;10.50;;;10.40;99.90;;;;;;5097043;28;20080;-79
2023/03/20 10:14:32;;;;;;;21.30;9.27;;;10.40;99.90;;;;;;5098092;28;20758;-79
2023/03/20 10:17:19;;;;;;;20.10;10.47;;;10.40;99.90;;;;;;5097627;28;20217;-79
2023/03/20 10:19:47;;;;;;;18.33;9.37;;;10.40;99.90;;;;;;5097533;28;20294;-79
2023/03/20 10:22:25;;;;;;;21.13;10.17;;;10.50;99.90;;;;;;5097516;28;20328;-79
2023/03/20 10:25:22;;;;;;;22.57;9.97;;;10.50;99.90;;;;;;5097306;28;20285;-79
2023/03/20 10:27:56;;;;;;;21.23;9.57;;;10.50;99.90;;;;;;5097436;28;20758;-79
2023/03/20 10:30:44;;;;;;;18.97;9.07;;;10.50;99.90;;;;;;5097303;28;20301;-79
2023/03/20 10:33:34;;;;;;;19.73;9.30;;;10.50;99.90;;;;;;5097612;28;20345;-79
2023/03/20 10:36:18;;;;;;;19.23;8.97;;;10.50;99.90;;;;;;5096302;28;20348;-79
2023/03/20 10:39:05;;;;;;;17.83;9.23;;;10.50;99.90;;;;;;5097226;28;20274;-79
2023/03/20 10:41:41;;;;;;;22.17;9.10;;;10.40;99.90;;;;;;5096510;28;20290;-78
2023/03/20 10:44:17;;;;;;;22.27;10.23;;;10.40;99.90;;;;;;5097920;28;20278;-79
2023/03/20 10:46:47;;;;;;;22.27;9.33;;;10.40;99.90;;;;;;5096573;28;20369;-79
2023/03/20 10:49:29;;;;;;;18.83;8.80;;;10.40;99.90;;;;;;5096929;28;20298;-79
2023/03/20 10:52:00;;;;;;;19.90;9.40;;;10.40;99.90;;;;;;5096070;28;20274;-79
2023/03/20 10:54:41;;;;;;;18.97;9.20;;;10.40;99.90;;;;;;5096914;28;20281;-79
2023/03/20 10:57:25;;;;;;;17.33;8.70;;;10.50;99.90;;;;;;5096872;28;20282;-79
2023/03/20 10:59:53;;;;;;;16.43;8.23;;;10.50;99.90;;;;;;5097417;28;20270;-79
2023/03/20 11:02:23;;;;;;;18.43;8.90;;;10.50;99.90;;;;;;5079174;28;20336;-79
2023/03/20 11:04:50;;;;;;;17.10;8.47;;;10.60;99.90;;;;;;5096700;28;20308;-79
2023/03/20 11:07:27;;;;;;;18.60;9.00;;;10.60;99.90;;;;;;5095692;28;20365;-79
2023/03/20 11:10:05;;;;;;;17.87;8.00;;;10.70;99.90;;;;;;5096645;28;20298;-79
2023/03/20 11:12:37;;;;;;;19.40;8.10;;;10.60;99.90;;;;;;5097035;28;20290;-79
2023/03/20 11:15:24;;;;;;;19.00;8.40;;;10.70;99.90;;;;;;5096575;28;20275;-79
2023/03/20 11:18:04;;;;;;;20.03;7.60;;;10.60;99.90;;;;;;5097026;28;20285;-79
2023/03/20 11:20:37;;;;;;;14.43;7.73;;;10.50;99.90;;;;;;5096757;28;20278;-79
2023/03/20 11:23:05;;;;;;;18.47;8.57;;;10.50;99.90;;;;;;5096371;28;20327;-79
2023/03/20 11:25:45;;;;;;;17.87;8.77;;;10.50;99.90;;;;;;5096283;28;20286;-79
2023/03/20 11:28:34;;;;;;;19.83;8.83;;;10.50;99.90;;;;;;5096831;28;20266;-80
2023/03/20 11:31:34;;;;;;;21.40;8.60;;;10.40;99.90;;;;;;5097075;28;20618;-79
2023/03/20 11:34:10;;;;;;;15.93;8.00;;;10.40;99.90;;;;;;5078576;28;20294;-79
2023/03/20 11:36:38;;;;;;;19.40;8.97;;;10.20;99.90;;;;;;5094969;28;20351;-79
2023/03/20 11:39:11;;;;;;;15.47;7.87;;;10.20;99.90;;;;;;5096059;28;20282;-79
2023/03/20 11:41:43;;;;;;;16.17;8.23;;;10.20;99.90;;;;;;5095945;28;20692;-79
2023/03/20 11:44:28;;;;;;;17.00;8.00;;;10.10;99.90;;;;;;5095916;28;20347;-79
2023/03/20 11:47:05;;;;;;;20.80;9.35;;;10.00;99.90;;;;;;5094964;28;20290;-80
2023/03/20 11:49:44;;;;;;;20.10;9.17;;;10.00;99.90;;;;;;5095550;28;20469;-79
2023/03/20 11:52:13;;;;;;;17.20;9.40;;;10.00;99.90;;;;;;5095931;28;20614;-80
2023/03/20 11:54:47;;;;;;;19.80;9.37;;;10.00;99.90;;;;;;5095551;28;20664;-80
2023/03/20 11:57:35;;;;;;;21.47;9.23;;;9.90;99.90;;;;;;5095803;28;20365;-80
2023/03/20 12:00:06;;;;;;;22.37;9.47;;;9.90;99.90;;;;;;5095641;28;20282;-80
2023/03/20 12:02:34;;;;;;;18.60;9.30;;;9.80;99.90;;;;;;5094417;28;20286;-80
2023/03/20 12:05:00;;;;;;;19.77;9.23;;;9.80;99.90;;;;;;5095813;28;20373;-80
2023/03/20 12:07:33;;;;;;;17.80;8.63;;;9.80;99.90;;;;;;5094305;28;20278;-80
2023/03/20 12:10:10;;;;;;;17.97;8.87;;;9.70;99.90;;;;;;5094499;28;20306;-81
2023/03/20 12:12:54;;;;;;;25.23;10.30;;;9.70;99.90;;;;;;5095233;28;20301;-81
2023/03/20 12:15:30;;;;;;;20.43;9.93;;;9.70;99.90;;;;;;5077770;28;20742;-81
2023/03/20 12:18:02;;;;;;;18.13;9.00;;;9.70;99.90;;;;;;5094569;28;20373;-81
2023/03/20 12:20:35;;;;;;;15.80;9.00;;;9.60;99.90;;;;;;5093912;28;20782;-81
2023/03/20 12:23:42;;;;;;;18.40;9.83;;;9.60;99.90;;;;;;5095674;28;20372;-81
2023/03/20 12:26:29;;;;;;;17.97;9.23;;;9.70;99.90;;;;;;4980440;28;20289;-81
2023/03/20 12:29:20;;;;;;;18.67;10.40;;;9.60;99.90;;;;;;5012577;28;20742;-81
2023/03/20 12:31:52;;;;;;;17.93;10.07;;;9.60;99.90;;;;;;5079346;28;20290;-81
2023/03/20 12:34:36;;;;;;;12.50;9.20;;;9.60;99.90;;;;;;5093802;28;20320;-81
2023/03/20 12:37:02;;;;;;;20.23;10.27;;;9.60;99.90;;;;;;5095542;28;20319;-81
2023/03/20 12:39:37;;;;;;;15.13;9.40;;;9.60;99.90;;;;;;5094668;28;20270;-81
2023/03/20 12:42:21;;;;;;;16.35;10.52;;;9.60;99.90;;;;;;5095374;28;20044;-80
2023/03/20 12:45:10;;;;;;;19.37;10.43;;;9.60;99.90;;;;;;5095287;28;20059;-81
2023/03/20 12:47:41;;;;;;;19.87;11.33;;;9.60;99.90;;;;;;5094861;28;20281;-81
2023/03/20 12:50:36;;;;;;;18.97;10.63;;;9.60;99.90;;;;;;5094564;28;20306;-81
2023/03/20 12:53:26;;;;;;;16.80;11.23;;;9.60;99.90;;;;;;5094574;28;20331;-81
2023/03/20 12:56:10;;;;;;;18.70;11.80;;;9.60;99.90;;;;;;5093706;28;20785;-81
2023/03/20 12:58:56;;;;;;;19.53;12.17;;;9.60;99.90;;;;;;5093759;28;20720;-80
2023/03/20 13:01:41;;;;;;;19.13;11.47;;;9.60;99.90;;;;;;5094744;28;20300;-80
2023/03/20 13:04:31;;;;;;;19.05;12.30;;;9.60;99.90;;;;;;5093912;28;20630;-81